KARB

Ann Arbor Municipal Airport

Ann Arbor, Michigan, USA
METAR KARB 181322Z 27010KT 7SM FEW008 SCT014 OVC024 M01/M03 A3006 RMK AO2 T10111033 $
Observed Flight Rules
Jan-18 @ 13:22 UTC (37 minutes ago) Marginal Visual Flight Rules
Wind Visibility Clouds
270° at 10 knots 7 miles
  • Few at 800' AGL
  • Scattered at 1,400' AGL
  • Overcast at 2,400' AGL
Temperatures Readings
Current -1°C / 30°F
Dewpoint -3°C / 27°F
Humidity 86%
Altimeter 30.06" Hg
Pressure 1017.92 hPa
Elevation 251
METAR KARB 181322Z 27010KT 7SM FEW008 SCT014 OVC024 M01/M03 A3006 RMK AO2 T10111033 $
Observed Flight Rules
Jan-18 @ 13:22 UTC
(37 minutes ago)
MVFR
Wind Visibility
270° at 10 knots 7 miles
Clouds
  • Few at 800' AGL
  • Scattered at 1,400' AGL
  • Overcast at 2,400' AGL
Temperature Dewpoint
-1°C / 30°F -3°C / 27°F
Humidity Altimeter Pressure
86% 30.06" Hg 1017.92 hPa